Aguanish, Canada
Current Conditions -  °F | °C
As of 8:14 PM on Wednesday 28 Jan 2015 (Local Time) from CYNA Reporting Station
Light Snow Light Snow  
Wind Chill: -9°   Ceiling: 2600
Heat Index:   Visibility: 9mi
Dew Point:   Wind: 16mph
Humidity: 92%   Direction: 350°N
Pressure: 29.82"   Gusts: 23mph
Location:  50.22°N, 62.08°W
Report Text: CYNA 290014Z AUTO 35014G20KT 9SM -SN OVC026 M13/M14 A2982 RMK ICG PAST HR SLP100
Loading
Personal Weather Stations






























Interactive Weather Map New forecast layout! Learn more

10-Day Weather Forecast

Advertisements
Track Severe Weather on mobile